Latest Weather Observations for Dennes Point

IDT60801

Issued at 10:31 pm EST Monday 2 May 2016 (issued every 30 minutes, with the page automatically refreshed every 10 minutes)

About weather observations | Map of weather stations | Latest weather observations for TAS | Other Formats
Station Details ID: 094255 Name: DENNES POINT Lat: -43.06 Lon: 147.36 Height: 5.67 m
Data from the previous 72 hours. | See also: Recent months at Dennes Point
Date/Time
EST
Temp
°C
App
Temp
°C
Dew
Point
Rel
Hum
%
Delta-T
°C
Wind Press
QNH
hPa
Press
MSL
hPa
Rain
since 9 am
mm
Dir
 
Spd
km/h
Gust
km/h
Spd
kts
Gust
kts
02/10:30pm 16.7 10.1 7.9 56 4.5 NNW 32 46 17 25 990.5 990.5 0.0
02/10:13pm 16.8 10.0 7.7 55 4.6 NNW 33 54 18 29 990.4 990.4 0.0
02/10:00pm 17.1 10.3 7.5 53 4.9 NNW 33 48 18 26 990.6 990.6 0.0
02/09:30pm 16.9 10.1 7.8 55 4.6 N 33 48 18 26 990.9 990.9 0.0
02/09:16pm 16.8 9.9 7.4 54 4.7 N 33 54 18 29 991.3 991.3 0.0
02/09:00pm 16.7 10.1 7.6 55 4.6 NNW 32 46 17 25 991.8 991.8 0.0
02/08:30pm 16.6 10.1 8.3 58 4.2 N 32 50 17 27 992.2 992.2 0.0
02/08:29pm 16.6 10.1 8.1 57 4.3 N 32 50 17 27 992.2 992.2 0.0
02/08:00pm 16.7 10.1 7.6 55 4.6 NNW 32 44 17 24 993.1 993.1 0.0
02/07:30pm 16.4 12.2 8.1 58 4.2 NNW 20 30 11 16 993.8 993.8 0.0
02/07:00pm 16.2 11.7 8.4 60 4.0 N 22 32 12 17 994.1 994.1 0.0
02/06:30pm 16.5 12.2 8.0 57 4.3 NNW 20 33 11 18 994.4 994.4 0.0
02/06:00pm 16.4 11.1 8.4 59 4.1 N 26 37 14 20 994.5 994.5 0.0
02/05:30pm 16.3 10.0 7.5 56 4.4 NNW 30 52 16 28 994.8 994.8 0.0
02/05:01pm 16.6 10.9 8.3 58 4.2 N 28 54 15 29 994.7 994.7 0.0
02/05:00pm 16.6 10.9 8.3 58 4.3 N 28 39 15 21 994.8 994.8 0.0
02/04:30pm 16.8 11.7 7.7 55 4.6 NNW 24 39 13 21 995.5 995.5 0.0
02/04:00pm 16.9 11.2 6.7 51 5.1 NNW 26 41 14 22 996.0 996.0 0.0
02/03:30pm 16.9 11.0 7.5 54 4.7 NNW 28 35 15 19 996.1 996.1 0.0
02/03:00pm 16.9 11.9 6.4 50 5.2 NNW 22 33 12 18 996.5 996.5 0.0
02/02:32pm 17.1 11.1 6.9 51 5.1 NW 28 56 15 30 997.0 997.0 0.0
02/02:30pm 17.2 11.3 5.8 47 5.5 NW 26 56 14 30 997.1 997.1 0.0
02/02:00pm 17.2 12.1 6.1 48 5.5 NNW 22 32 12 17 997.3 997.3 0.0
02/01:30pm 16.6 11.2 6.4 51 5.0 NNW 24 41 13 22 997.7 997.7 0.0
02/01:00pm 15.8 11.8 6.8 55 4.4 N 17 28 9 15 998.4 998.4 0.0
02/12:30pm 15.4 11.0 6.7 56 4.2 NNW 19 26 10 14 999.0 999.0 0.0
02/12:00pm 15.2 10.8 6.5 56 4.3 NW 19 26 10 14 999.6 999.6 0.0
02/11:30am 14.8 11.3 7.1 60 3.8 NNW 15 22 8 12 1000.2 1000.2 0.0
02/11:00am 14.2 10.0 7.5 64 3.3 N 19 24 10 13 1000.6 1000.6 0.0
02/10:30am 13.6 9.8 6.0 60 3.6 N 15 20 8 11 1001.0 1001.0 0.0
02/10:00am 13.1 8.7 6.5 64 3.2 NNW 19 26 10 14 1001.5 1001.5 0.0
02/09:30am 13.0 9.9 5.7 61 3.4 NNW 11 24 6 13 1001.5 1001.5 0.0
02/09:00am 12.9 8.1 4.8 58 3.7 NW 19 32 10 17 1001.8 1001.8 11.8
02/08:30am 12.4 7.9 6.0 65 3.0 NNW 19 24 10 13 1002.1 1002.0 11.8
02/08:00am 11.9 7.8 6.0 67 2.8 NNW 17 24 9 13 1002.1 1002.0 11.8
02/07:30am 11.6 8.7 4.6 62 3.2 NW 9 13 5 7 1002.2 1002.1 11.8
02/07:00am 11.6 8.7 4.6 62 3.2 NNW 9 17 5 9 1002.1 1002.0 11.8
02/06:30am 11.0 7.6 4.2 63 3.0 WNW 11 15 6 8 1002.2 1002.1 11.8
02/06:00am 10.9 8.2 3.7 61 3.2 W 7 13 4 7 1002.4 1002.3 11.8
02/05:30am 10.9 8.0 4.8 66 2.8 NW 9 19 5 10 1002.4 1002.3 11.8
02/05:00am 10.8 7.8 4.3 64 2.9 NW 9 15 5 8 1002.1 1002.0 11.8
02/04:30am 10.9 8.5 4.1 63 3.0 NW 6 11 3 6 1001.8 1001.8 11.8
02/04:00am 10.9 6.7 3.7 61 3.2 NW 15 28 8 15 1001.8 1001.8 11.8
02/03:30am 11.0 6.2 4.5 64 2.9 WNW 19 28 10 15 1001.4 1001.4 11.8
02/03:11am 10.9 4.3 4.1 63 3.0 W 28 52 15 28 1001.6 1001.6 11.8
02/03:00am 10.6 5.7 4.3 65 2.8 W 19 32 10 17 1001.5 1001.5 11.8
02/02:30am 10.3 5.1 3.8 64 2.9 WNW 20 32 11 17 1001.3 1001.3 11.8
02/02:00am 10.2 4.0 4.1 66 2.7 W 26 35 14 19 1001.3 1001.3 11.8
02/01:30am 10.2 1.6 4.6 68 2.5 W 39 57 21 31 1001.2 1001.2 11.8
02/01:00am 10.3 0.9 4.5 67 2.6 W 43 52 23 28 1000.7 1000.7 11.8
02/12:30am 10.3 0.7 4.5 67 2.6 W 44 61 24 33 1000.3 1000.3 11.8
02/12:00am 10.1 0.1 4.5 68 2.5 W 46 61 25 33 1000.3 1000.3 11.8
 
Date/Time
EST
Temp
°C
App
Temp
°C
Dew
Point
Rel
Hum
%
Delta-T
°C
Wind Press
QNH
hPa
Press
MSL
hPa
Rain
since 9 am
mm
Dir
 
Spd
km/h
Gust
km/h
Spd
kts
Gust
kts
01/11:30pm 10.0 1.0 4.6 69 2.4 W 41 52 22 28 999.8 999.8 11.8
01/11:00pm 10.1 2.6 4.7 69 2.4 W 33 48 18 26 999.9 999.9 11.8
01/10:30pm 10.3 0.5 5.1 70 2.4 W 46 69 25 37 999.5 999.5 11.8
01/10:07pm 10.5 1.2 5.1 69 2.5 W 43 63 23 34 999.2 999.2 11.8
01/10:00pm 10.5 1.3 5.5 71 2.3 WSW 43 59 23 32 999.0 999.0 11.8
01/09:30pm 10.8 1.1 5.8 71 2.3 W 46 57 25 31 998.7 998.7 11.8
01/09:17pm 11.2 2.9 6.1 71 2.4 W 39 54 21 29 998.6 998.6 11.8
01/09:03pm 11.4 3.6 6.5 72 2.3 WSW 37 57 20 31 997.9 997.9 11.8
01/09:00pm 11.2 4.1 6.3 72 2.3 WSW 33 46 18 25 998.0 998.0 11.8
01/08:30pm 11.1 2.9 6.5 73 2.2 WSW 39 54 21 29 997.3 997.3 11.8
01/08:09pm 11.4 2.4 7.1 75 2.1 WSW 44 63 24 34 996.3 996.3 11.8
01/08:00pm 11.2 1.4 6.9 75 2.1 WSW 48 59 26 32 995.7 995.7 11.8
01/07:37pm 11.1 2.3 7.4 78 1.8 WSW 43 61 23 33 994.9 994.9 11.8
01/07:30pm 11.1 2.4 7.6 79 1.7 WSW 43 56 23 30 994.7 994.7 11.8
01/07:00pm 11.3 2.6 8.3 82 1.5 WSW 44 61 24 33 993.8 993.8 11.8
01/06:30pm 11.6 1.5 9.0 84 1.3 WSW 52 67 28 36 992.8 992.8 11.2
01/06:10pm 12.0 2.4 9.4 84 1.3 WSW 50 70 27 38 991.6 991.6 10.2
01/06:00pm 12.1 2.1 9.5 84 1.3 WSW 52 69 28 37 990.8 990.8 9.8
01/05:33pm 13.1 4.6 10.5 84 1.4 W 46 67 25 36 989.3 989.3 8.2
01/05:30pm 13.3 5.4 10.7 84 1.4 W 43 57 23 31 989.4 989.4 8.0
01/05:23pm 13.3 6.5 10.7 84 1.4 W 37 57 20 31 989.1 989.1 7.8
01/05:13pm 13.4 8.4 10.8 84 1.4 W 28 44 15 24 988.8 988.8 7.6
01/05:00pm 13.5 11.0 11.0 85 1.3 W 15 20 8 11 988.7 988.7 7.6
01/04:30pm 13.3 10.7 10.7 84 1.4 WSW 15 19 8 10 988.4 988.4 6.4
01/04:00pm 14.3 12.7 11.6 84 1.5 W 11 15 6 8 987.8 987.8 4.8
01/03:30pm 15.1 14.8 11.3 78 2.0 WSW 4 7 2 4 987.4 987.4 4.6
01/03:00pm 15.2 15.3 10.0 71 2.7 CALM 0 0 0 0 987.4 987.4 4.6
01/02:30pm 15.0 13.0 10.0 72 2.6 N 11 15 6 8 987.1 987.1 4.6
01/02:00pm 15.0 13.3 10.0 72 2.6 N 9 11 5 6 987.4 987.4 4.6
01/01:30pm 15.1 12.9 10.9 76 2.2 N 13 20 7 11 988.2 988.2 4.6
01/01:00pm 14.8 11.5 11.6 81 1.7 N 20 28 11 15 988.8 988.8 4.4
01/12:30pm 14.2 13.2 12.2 88 1.1 NE 9 17 5 9 990.1 990.1 4.4
01/12:00pm 14.6 14.1 12.6 88 1.1 ESE 7 9 4 5 991.0 991.0 4.4
01/11:30am 13.8 13.0 11.8 88 1.1 N 7 9 4 5 991.9 991.9 4.4
01/11:00am 13.6 12.1 11.8 89 1.0 N 11 13 6 7 992.6 992.6 4.4
01/10:30am 13.5 12.3 11.7 89 1.0 NNE 9 13 5 7 993.4 993.4 4.4
01/10:00am 13.8 11.5 11.8 88 1.1 N 15 19 8 10 995.0 995.0 3.8
01/09:30am 13.9 11.9 11.4 85 1.3 WNW 13 20 7 11 995.5 995.5 3.4
01/09:00am 13.9 11.5 11.4 85 1.3 WSW 15 20 8 11 995.9 995.9 4.6
01/08:30am 14.2 9.7 11.5 84 1.4 WNW 26 44 14 24 997.1 997.1 4.2
01/08:01am 14.5 11.1 12.5 88 1.1 W 22 52 12 28 997.1 997.1 2.4
01/08:00am 14.6 11.9 12.8 89 1.0 W 19 46 10 25 997.2 997.2 2.4
01/07:58am 14.5 13.0 13.0 91 0.8 W 13 46 7 25 997.2 997.2 2.4
01/07:30am 14.5 15.4 12.9 90 0.9 CALM 0 4 0 2 996.7 996.7 2.4
01/07:00am 14.7 14.5 13.1 90 0.9 SSW 6 9 3 5 997.4 997.4 2.4
01/06:30am 15.0 14.9 13.2 89 1.0 NE 6 7 3 4 998.3 998.3 2.4
01/06:00am 15.3 14.6 13.3 88 1.1 NE 9 17 5 9 999.2 999.2 2.4
01/05:30am 15.7 14.3 13.4 86 1.3 NNW 13 19 7 10 1000.5 1000.5 0.0
01/05:00am 16.4 13.8 13.7 84 1.5 NNE 20 24 11 13 1000.5 1000.5 0.0
01/04:30am 16.1 14.0 13.6 85 1.4 NNE 17 22 9 12 1000.6 1000.6 0.0
01/04:00am 16.2 13.7 13.5 84 1.5 NE 19 26 10 14 1000.9 1000.9 0.0
01/03:30am 16.2 13.7 13.5 84 1.5 NE 19 22 10 12 1001.4 1001.4 0.0
01/03:00am 16.2 14.4 13.3 83 1.6 NE 15 19 8 10 1001.8 1001.8 0.0
01/02:30am 16.2 13.6 13.3 83 1.6 NE 19 22 10 12 1002.6 1002.5 0.0
01/02:00am 16.3 14.1 13.4 83 1.6 NNE 17 24 9 13 1003.2 1003.1 0.0
01/01:30am 15.7 15.4 12.8 83 1.6 N 6 9 3 5 1004.1 1004.0 0.0
01/01:00am 16.2 14.8 13.3 83 1.6 NNE 13 22 7 12 1004.6 1004.5 0.0
01/12:30am 15.6 16.3 12.2 80 1.9 CALM 0 0 0 0 1005.1 1005.0 0.0
01/12:00am 15.4 14.8 11.8 79 2.0 W 6 9 3 5 1005.3 1005.2 0.0
 
Date/Time
EST
Temp
°C
App
Temp
°C
Dew
Point
Rel
Hum
%
Delta-T
°C
Wind Press
QNH
hPa
Press
MSL
hPa
Rain
since 9 am
mm
Dir
 
Spd
km/h
Gust
km/h
Spd
kts
Gust
kts
30/11:30pm 16.3 14.7 12.7 79 2.0 NNE 13 17 7 9 1005.8 1005.7 0.0
30/11:00pm 16.4 15.6 11.8 74 2.5 E 7 13 4 7 1006.1 1006.0 0.0
30/10:30pm 16.6 15.9 11.3 71 2.9 SSE 6 11 3 6 1006.5 1006.4 0.0
30/10:00pm 17.1 15.2 11.8 71 2.9 ENE 13 22 7 12 1006.8 1006.7 0.0
30/09:30pm 17.2 15.3 11.9 71 2.9 NNE 13 22 7 12 1007.0 1006.9 0.0
30/09:00pm 16.5 14.8 12.3 76 2.3 NNE 13 17 7 9 1006.7 1006.6 0.0
30/08:30pm 16.9 15.8 12.0 73 2.7 NNW 9 13 5 7 1006.7 1006.6 0.0
30/08:00pm 17.0 14.0 12.1 73 2.7 N 19 24 10 13 1006.5 1006.4 0.0
30/07:30pm 17.5 16.0 11.8 69 3.1 NE 11 15 6 8 1006.8 1006.7 0.0
30/07:00pm 17.7 16.5 10.3 62 4.0 E 7 11 4 6 1006.7 1006.6 0.0
30/06:30pm 17.8 16.7 9.9 60 4.2 NNE 6 7 3 4 1006.6 1006.5 0.0
30/06:00pm 17.8 17.1 10.2 61 4.1 N 4 6 2 3 1006.6 1006.5 0.0
30/05:30pm 18.1 16.6 10.7 62 4.0 NNW 9 13 5 7 1006.5 1006.4 0.0
30/05:00pm 19.1 17.7 10.9 59 4.5 NW 9 13 5 7 1006.4 1006.3 0.0
30/04:30pm 18.4 16.5 11.9 66 3.6 N 13 17 7 9 1006.5 1006.4 0.0
30/04:00pm 19.6 17.2 11.4 59 4.5 N 15 20 8 11 1006.8 1006.7 0.0
30/03:30pm 21.3 18.0 9.5 47 6.3 NNW 17 28 9 15 1006.8 1006.7 0.0
30/03:00pm 22.2 20.3 10.4 47 6.5 NW 11 24 6 13 1006.9 1006.8 0.0
30/02:30pm 21.7 19.3 10.2 48 6.3 NW 13 32 7 17 1007.0 1006.9 0.0
30/02:00pm 19.5 17.8 11.3 59 4.5 N 11 20 6 11 1007.0 1006.9 0.0
30/01:30pm 19.1 17.1 11.4 61 4.2 N 13 17 7 9 1007.2 1007.1 0.0
30/01:00pm 19.0 16.3 11.6 62 4.1 N 17 22 9 12 1007.7 1007.6 0.0
30/12:30pm 19.5 16.2 11.0 58 4.6 NNE 19 24 10 13 1008.0 1007.9 0.0
30/12:00pm 18.7 14.9 11.0 61 4.2 NNE 22 30 12 16 1008.8 1008.8 0.0
30/11:30am 18.1 14.2 10.7 62 4.0 N 22 30 12 16 1009.5 1009.5 0.0
30/11:00am 17.4 13.8 10.5 64 3.7 N 20 24 11 13 1009.9 1009.9 0.0
30/10:30am 16.5 11.7 10.4 67 3.2 N 26 32 14 17 1010.1 1010.1 0.0
30/10:00am 16.3 11.9 10.4 68 3.1 N 24 32 13 17 1010.4 1010.4 0.0
30/09:30am 15.8 12.0 11.0 73 2.6 N 22 28 12 15 1011.0 1011.0 0.0
30/09:00am 15.3 11.4 10.9 75 2.3 N 22 28 12 15 1011.4 1011.4 0.0
30/08:30am 15.3 11.0 10.9 75 2.3 N 24 30 13 16 1011.2 1011.2 0.0
30/08:00am 14.6 10.8 11.0 79 1.9 N 22 26 12 14 1011.4 1011.4 0.0
30/07:30am 14.2 10.3 10.8 80 1.8 N 22 26 12 14 1011.0 1011.0 0.0
30/07:00am 15.1 11.2 10.7 75 2.3 N 22 28 12 15 1010.8 1010.8 0.0
30/06:30am 15.2 11.7 10.8 75 2.3 N 20 26 11 14 1010.6 1010.6 0.0
30/06:00am 15.1 11.9 11.3 78 2.0 N 19 26 10 14 1010.8 1010.8 0.0
30/05:30am 15.0 13.0 11.6 80 1.8 N 13 19 7 10 1010.8 1010.8 0.0
30/05:00am 15.1 12.4 11.7 80 1.8 N 17 20 9 11 1010.5 1010.5 0.0
30/04:30am 15.2 12.5 11.8 80 1.8 N 17 20 9 11 1010.3 1010.3 0.0
30/04:00am 15.3 12.7 11.9 80 1.8 NNE 17 20 9 11 1010.1 1010.1 0.0
30/03:30am 14.5 13.7 11.1 80 1.8 NW 6 11 3 6 1010.1 1010.1 0.0
30/03:00am 15.7 13.1 11.9 78 2.1 N 17 20 9 11 1009.7 1009.7 0.0
30/02:30am 15.6 14.5 11.8 78 2.1 NNW 9 15 5 8 1009.9 1009.9 0.0
30/02:00am 13.6 12.7 10.6 82 1.6 SSW 6 9 3 5 1010.2 1010.2 0.0
30/01:30am 15.1 14.3 11.1 77 2.1 WNW 6 13 3 7 1009.8 1009.8 0.0
30/01:00am 16.1 13.7 12.5 79 2.0 N 17 20 9 11 1009.9 1009.9 0.0
30/12:30am 16.0 13.6 12.6 80 1.9 N 17 22 9 12 1009.7 1009.7 0.0
30/12:00am 15.9 15.0 12.6 81 1.8 N 9 11 5 6 1009.6 1009.6 0.0
 
Date/Time
EST
Temp
°C
App
Temp
°C
Dew
Point
Rel
Hum
%
Delta-T
°C
Wind Press
QNH
hPa
Press
MSL
hPa
Rain
since 9 am
mm
Dir
 
Spd
km/h
Gust
km/h
Spd
kts
Gust
kts
29/11:30pm 16.2 15.6 12.4 78 2.1 N 7 15 4 8 1009.7 1009.7 0.0
29/11:00pm 16.5 15.3 12.8 79 2.1 NNE 11 15 6 8 1009.8 1009.8 0.0

Other Formats:

Comma delimited format used in spreadsheet applications
http://www.bom.gov.au/fwo/IDT60801/IDT60801.94988.axf

JavaScript Object Notation format (JSON) in row-major order
http://www.bom.gov.au/fwo/IDT60801/IDT60801.94988.json